createdAt,value
2019-02-16T00:00:05.142Z,57.70
2019-02-16T00:04:10.052Z,57.90
2019-02-16T00:08:14.765Z,58.00
2019-02-16T00:12:19.620Z,58.40
2019-02-16T00:16:24.163Z,59.00
2019-02-16T00:20:28.999Z,58.80
2019-02-16T00:24:36.580Z,58.40
2019-02-16T00:28:41.131Z,58.30
2019-02-16T00:32:45.676Z,58.40
2019-02-16T00:36:50.276Z,58.20
2019-02-16T00:40:55.065Z,58.10
2019-02-16T00:44:59.637Z,58.10
2019-02-16T00:49:04.182Z,58.20
2019-02-16T00:53:08.936Z,58.30
2019-02-16T00:57:13.880Z,58.20
2019-02-16T01:01:18.408Z,58.30
2019-02-16T01:05:23.264Z,58.10
2019-02-16T01:09:27.996Z,58.10
2019-02-16T01:13:32.680Z,58.10
2019-02-16T01:17:37.220Z,58.30
2019-02-16T01:21:41.884Z,58.20
2019-02-16T01:25:46.420Z,58.30
2019-02-16T01:29:51.282Z,58.30
2019-02-16T01:33:55.821Z,58.30
2019-02-16T01:38:00.381Z,58.10
2019-02-16T01:42:05.182Z,58.50
2019-02-16T01:46:09.729Z,58.90
2019-02-16T01:50:14.547Z,58.80
2019-02-16T01:54:19.094Z,58.50
2019-02-16T01:58:23.933Z,58.80
2019-02-16T02:02:28.756Z,59.50
2019-02-16T02:06:33.297Z,59.70
2019-02-16T02:10:38.140Z,59.90
2019-02-16T02:14:42.653Z,60.10
2019-02-16T02:18:47.292Z,60.50
2019-02-16T02:22:52.372Z,60.60
2019-02-16T02:26:56.916Z,60.60
2019-02-16T02:31:01.707Z,60.40
2019-02-16T02:35:06.596Z,60.50
2019-02-16T02:39:11.124Z,60.30
2019-02-16T02:43:15.989Z,60.00
2019-02-16T02:47:20.541Z,60.20
2019-02-16T02:51:25.308Z,60.60
2019-02-16T02:55:29.839Z,60.80
2019-02-16T02:59:34.688Z,60.40
2019-02-16T03:03:39.227Z,60.60
2019-02-16T03:07:43.762Z,60.80
2019-02-16T03:11:48.621Z,60.60
2019-02-16T03:15:53.193Z,60.40
2019-02-16T03:19:59.152Z,60.30
2019-02-16T03:24:03.687Z,60.60
2019-02-16T03:28:53.841Z,60.20
2019-02-16T03:33:31.461Z,60.40
2019-02-16T03:37:49.513Z,60.90
2019-02-16T03:41:54.329Z,61.00
2019-02-16T03:45:58.847Z,60.80
2019-02-16T03:50:03.828Z,60.70
2019-02-16T03:54:08.397Z,61.10
2019-02-16T03:58:13.002Z,60.60
2019-02-16T04:02:17.586Z,60.40
2019-02-16T04:06:22.105Z,60.60
2019-02-16T04:10:26.664Z,60.80
2019-02-16T04:14:31.209Z,61.00
2019-02-16T04:18:35.759Z,61.00
2019-02-16T04:22:40.553Z,60.40
2019-02-16T04:26:45.074Z,60.70
2019-02-16T04:30:49.617Z,61.00
2019-02-16T04:34:54.193Z,61.00
2019-02-16T04:38:58.730Z,61.70
2019-02-16T04:43:03.535Z,63.30
2019-02-16T04:47:08.052Z,64.20
2019-02-16T04:51:12.620Z,64.90
2019-02-16T04:55:17.153Z,63.70
2019-02-16T04:59:22.004Z,62.70
2019-02-16T05:03:26.540Z,62.20
2019-02-16T05:07:31.068Z,62.00
2019-02-16T05:11:35.915Z,62.20
2019-02-16T05:15:40.518Z,61.80
2019-02-16T05:19:45.264Z,61.90
2019-02-16T05:23:49.806Z,62.00
2019-02-16T05:27:54.333Z,61.40
2019-02-16T05:31:59.176Z,61.10
2019-02-16T05:36:04.022Z,61.60
2019-02-16T05:40:08.934Z,61.90
2019-02-16T05:44:13.568Z,63.00
2019-02-16T05:48:19.273Z,64.10
2019-02-16T05:52:24.000Z,64.00
2019-02-16T05:56:28.570Z,62.90
2019-02-16T06:00:33.370Z,62.30
2019-02-16T06:04:37.944Z,61.60
2019-02-16T06:08:42.481Z,60.70
2019-02-16T06:12:47.268Z,60.50
2019-02-16T06:16:51.836Z,60.20
2019-02-16T06:20:56.655Z,60.00
2019-02-16T06:25:01.217Z,59.70
2019-02-16T06:29:05.858Z,60.30
2019-02-16T06:33:10.528Z,60.30
2019-02-16T06:37:25.437Z,60.40
2019-02-16T06:41:30.041Z,60.00
2019-02-16T06:45:34.817Z,60.10
2019-02-16T06:49:43.377Z,59.70
2019-02-16T06:53:48.136Z,59.30
2019-02-16T06:57:54.576Z,59.00
2019-02-16T07:01:59.184Z,58.80
2019-02-16T07:06:03.764Z,59.00
2019-02-16T07:10:08.811Z,58.90
2019-02-16T07:14:13.420Z,59.40
2019-02-16T07:18:29.126Z,59.10
2019-02-16T07:22:34.250Z,58.70
2019-02-16T07:26:38.854Z,58.20
2019-02-16T07:30:43.490Z,57.70
2019-02-16T07:34:48.092Z,58.10
2019-02-16T07:38:52.992Z,57.40
2019-02-16T07:42:58.587Z,57.00
2019-02-16T07:47:25.417Z,56.70
2019-02-16T07:51:55.175Z,56.30
2019-02-16T07:56:18.836Z,55.60
2019-02-16T08:00:29.107Z,55.20
2019-02-16T08:04:45.900Z,55.30
2019-02-16T08:08:58.316Z,55.60
2019-02-16T08:13:22.240Z,54.40
2019-02-16T08:17:48.870Z,55.60
2019-02-16T08:22:00.659Z,55.40
2019-02-16T08:26:30.598Z,54.60
2019-02-16T08:30:45.282Z,54.10
2019-02-16T08:35:07.929Z,53.60
2019-02-16T08:39:38.705Z,53.60
2019-02-16T08:44:01.853Z,54.30
2019-02-16T08:48:18.865Z,54.10
2019-02-16T08:52:42.755Z,53.80
2019-02-16T08:56:56.923Z,53.70
2019-02-16T09:01:15.182Z,52.90
2019-02-16T09:05:53.912Z,52.60
2019-02-16T09:10:23.368Z,52.20
2019-02-16T09:14:45.511Z,51.20
2019-02-16T09:19:00.540Z,50.70
2019-02-16T09:23:18.208Z,50.20
2019-02-16T09:27:47.925Z,50.00
2019-02-16T09:32:23.913Z,50.00
2019-02-16T09:36:40.014Z,49.20
2019-02-16T09:41:02.536Z,49.50
2019-02-16T09:45:32.332Z,49.00
2019-02-16T09:50:05.288Z,48.60
2019-02-16T09:54:33.969Z,48.90
2019-02-16T09:59:00.369Z,48.60
2019-02-16T10:03:21.361Z,48.90
2019-02-16T10:07:51.195Z,48.50
2019-02-16T10:12:02.848Z,48.50
2019-02-16T10:16:25.610Z,47.90
2019-02-16T10:20:55.849Z,46.30
2019-02-16T10:25:28.826Z,47.10
2019-02-16T10:29:49.841Z,45.70
2019-02-16T10:34:12.347Z,45.30
2019-02-16T10:38:41.415Z,44.40
2019-02-16T10:43:08.096Z,44.00
2019-02-16T10:47:30.767Z,43.90
2019-02-16T10:51:48.079Z,42.00
2019-02-16T10:55:59.815Z,41.00
2019-02-16T11:00:18.323Z,39.80
2019-02-16T11:04:44.820Z,41.20
2019-02-16T11:09:01.731Z,39.60
2019-02-16T11:13:19.455Z,38.90
2019-02-16T11:18:01.177Z,36.10
2019-02-16T11:22:27.947Z,36.00
2019-02-16T11:26:51.761Z,36.40
2019-02-16T11:31:30.992Z,35.50
2019-02-16T11:35:57.435Z,35.90
2019-02-16T11:40:27.321Z,34.30
2019-02-16T11:44:49.964Z,34.40
2019-02-16T11:49:12.318Z,34.00
2019-02-16T11:53:48.512Z,34.00
2019-02-16T11:58:06.984Z,33.30
2019-02-16T12:02:39.718Z,33.40
2019-02-16T12:06:58.128Z,32.60
2019-02-16T12:11:24.783Z,31.50
2019-02-16T12:15:40.172Z,32.10
2019-02-16T12:20:03.918Z,31.90
2019-02-16T12:24:24.448Z,30.80
2019-02-16T12:28:38.348Z,30.00
2019-02-16T12:32:55.172Z,30.90
2019-02-16T12:37:22.073Z,29.20
2019-02-16T12:41:33.953Z,29.00
2019-02-16T12:45:51.309Z,27.90
2019-02-16T12:50:13.542Z,27.90
2019-02-16T12:54:34.810Z,27.90
2019-02-16T12:59:05.015Z,27.70
2019-02-16T13:03:32.269Z,26.90
2019-02-16T13:07:49.829Z,25.60
2019-02-16T13:12:10.335Z,22.90
2019-02-16T13:16:33.318Z,21.00
2019-02-16T13:21:21.435Z,19.40
2019-02-16T13:25:42.708Z,18.00
2019-02-16T13:29:56.823Z,16.10
2019-02-16T13:34:26.347Z,15.40
2019-02-16T13:38:50.430Z,14.20
2019-02-16T13:43:04.809Z,14.30
2019-02-16T13:47:14.484Z,14.80
2019-02-16T13:51:38.155Z,14.80
2019-02-16T13:56:07.871Z,14.90
2019-02-16T14:00:38.913Z,15.20
2019-02-16T14:05:01.752Z,15.10
2019-02-16T14:09:12.267Z,16.00
2019-02-16T14:13:34.635Z,15.20
2019-02-16T14:17:43.483Z,13.90
2019-02-16T14:21:48.193Z,14.60
2019-02-16T14:25:52.779Z,14.50
2019-02-16T14:29:57.541Z,14.10
2019-02-16T14:34:02.084Z,14.00
2019-02-16T14:38:25.780Z,15.30
2019-02-16T14:42:30.476Z,15.60
2019-02-16T14:46:35.071Z,16.10
2019-02-16T14:50:39.882Z,17.00
2019-02-16T14:54:44.468Z,17.90
2019-02-16T14:58:49.109Z,17.50
2019-02-16T15:02:53.813Z,17.70
2019-02-16T15:06:58.462Z,18.00
2019-02-16T15:11:03.124Z,18.50
2019-02-16T15:15:07.931Z,19.20
2019-02-16T15:19:12.656Z,19.90
2019-02-16T15:23:17.344Z,20.30
2019-02-16T15:27:22.015Z,20.60
2019-02-16T15:31:26.757Z,21.10
2019-02-16T15:35:31.332Z,21.60
2019-02-16T15:39:36.113Z,21.90
2019-02-16T15:43:40.734Z,22.20
2019-02-16T15:47:45.314Z,22.50
2019-02-16T15:51:50.013Z,22.60
2019-02-16T15:55:54.569Z,22.90
2019-02-16T15:59:59.420Z,23.10
2019-02-16T16:04:04.045Z,23.70
2019-02-16T16:08:33.548Z,23.70
2019-02-16T16:12:42.956Z,23.80
2019-02-16T16:16:56.217Z,23.10
2019-02-16T16:21:08.652Z,23.70
2019-02-16T16:25:25.076Z,24.30
2019-02-16T16:29:57.528Z,24.40
2019-02-16T16:34:19.815Z,24.70
2019-02-16T16:38:48.633Z,25.40
2019-02-16T16:43:18.227Z,26.30
2019-02-16T16:47:32.402Z,26.80
2019-02-16T16:51:45.085Z,27.10
2019-02-16T16:56:07.409Z,27.20
2019-02-16T17:00:32.288Z,27.50
2019-02-16T17:04:58.754Z,28.10
2019-02-16T17:09:28.374Z,28.80
2019-02-16T17:13:49.596Z,29.70
2019-02-16T17:18:07.908Z,29.50
2019-02-16T17:22:30.783Z,30.60
2019-02-16T17:27:06.438Z,30.00
2019-02-16T17:31:25.325Z,31.10
2019-02-16T17:35:58.045Z,31.40
2019-02-16T17:40:08.367Z,31.80
2019-02-16T17:44:30.902Z,31.80
2019-02-16T17:48:46.619Z,32.30
2019-02-16T17:53:03.867Z,32.80
2019-02-16T17:57:27.534Z,33.90
2019-02-16T18:01:56.853Z,34.50
2019-02-16T18:06:11.885Z,34.50
2019-02-16T18:10:35.815Z,35.00
2019-02-16T18:15:02.239Z,35.20
2019-02-16T18:19:20.036Z,35.60
2019-02-16T18:23:36.955Z,36.10
2019-02-16T18:28:06.460Z,36.80
2019-02-16T18:32:20.729Z,36.90
2019-02-16T18:36:52.408Z,37.20
2019-02-16T18:41:07.192Z,37.40
2019-02-16T18:45:18.453Z,37.40
2019-02-16T18:49:38.760Z,37.30
2019-02-16T18:54:09.071Z,38.00
2019-02-16T18:58:38.598Z,38.10
2019-02-16T19:02:49.917Z,39.20
2019-02-16T19:07:13.644Z,38.80
2019-02-16T19:11:27.033Z,38.30
2019-02-16T19:15:53.918Z,38.10
2019-02-16T19:20:26.767Z,37.60
2019-02-16T19:24:55.820Z,37.20
2019-02-16T19:29:19.462Z,37.00
2019-02-16T19:33:40.984Z,37.40
2019-02-16T19:38:07.257Z,37.40
2019-02-16T19:42:22.240Z,38.00
2019-02-16T19:46:45.888Z,37.80
2019-02-16T19:51:06.521Z,37.60
2019-02-16T19:55:30.186Z,38.00
2019-02-16T19:59:57.859Z,37.70
2019-02-16T20:04:24.534Z,37.40
2019-02-16T20:08:46.943Z,37.90
2019-02-16T20:13:03.774Z,38.10
2019-02-16T20:17:36.599Z,38.10
2019-02-16T20:22:03.521Z,38.10
2019-02-16T20:26:31.048Z,38.50
2019-02-16T20:30:48.852Z,39.60
2019-02-16T20:35:01.608Z,39.40
2019-02-16T20:39:26.239Z,39.70
2019-02-16T20:43:42.213Z,40.20
2019-02-16T20:48:05.796Z,40.70
2019-02-16T20:52:24.436Z,40.50
2019-02-16T20:56:42.915Z,40.20
2019-02-16T21:01:06.637Z,41.00
2019-02-16T21:05:21.818Z,40.80
2019-02-16T21:09:51.320Z,41.00
2019-02-16T21:14:13.087Z,42.00
2019-02-16T21:18:45.777Z,42.80
2019-02-16T21:23:07.917Z,42.60
2019-02-16T21:27:43.800Z,42.00
2019-02-16T21:31:54.924Z,42.30
2019-02-16T21:36:21.489Z,42.90
2019-02-16T21:40:41.472Z,42.60
2019-02-16T21:45:05.127Z,43.90
2019-02-16T21:49:39.537Z,42.90
2019-02-16T21:53:55.779Z,42.70
2019-02-16T21:58:18.369Z,42.50
2019-02-16T22:02:41.918Z,42.80
2019-02-16T22:07:20.897Z,43.10
2019-02-16T22:11:34.940Z,43.20
2019-02-16T22:15:40.569Z,43.70
2019-02-16T22:19:45.257Z,43.30
2019-02-16T22:23:49.881Z,43.20
2019-02-16T22:27:54.448Z,43.20
2019-02-16T22:31:59.434Z,43.30
2019-02-16T22:36:04.006Z,44.10
2019-02-16T22:40:09.177Z,43.70
2019-02-16T22:44:13.810Z,43.80
2019-02-16T22:48:18.371Z,43.60
2019-02-16T22:52:22.994Z,43.40
2019-02-16T22:56:27.559Z,43.40
2019-02-16T23:00:46.290Z,43.40
2019-02-16T23:04:52.497Z,43.60
2019-02-16T23:08:57.157Z,43.60
2019-02-16T23:13:01.960Z,43.60
2019-02-16T23:17:06.518Z,44.50
2019-02-16T23:21:11.353Z,44.50
2019-02-16T23:25:15.942Z,44.00
2019-02-16T23:29:20.560Z,43.70
2019-02-16T23:33:25.136Z,43.90
2019-02-16T23:37:30.852Z,43.80
2019-02-16T23:41:35.519Z,44.50
2019-02-16T23:45:40.076Z,44.70
2019-02-16T23:49:44.932Z,45.60
2019-02-16T23:53:49.522Z,45.20
2019-02-16T23:57:54.182Z,45.10
